Arraial do Cabo, Brazil
Current Conditions -  °F | °C
As of 7:00 AM on Saturday 25 Oct 2014 (Local Time) from SBCB Reporting Station
Few Clouds Few Clouds  
Wind Chill: 72°   Ceiling: Unl
Heat Index: 72°   Visibility: 6mi
Dew Point: 72°   Wind: 12mph
Humidity: 100%   Direction: 80°E
Pressure: 29.91"   Gusts: NA
Location:  22.97°S, 42.03°W
Report Text: SBCB 250900Z 08010KT 9999 FEW040 22/22 Q1013
Loading
Personal Weather Stations






























Interactive Weather Map
Tropical Storm Tracking
New forecast layout! Learn more

10-Day Weather Forecast

Advertisements
Track Severe Weather on mobile